createdAt,value
2017-09-02T00:00:05.561Z,942.8
2017-09-02T00:01:13.609Z,942.8
2017-09-02T00:02:21.696Z,942.8
2017-09-02T00:03:29.841Z,942.7
2017-09-02T00:04:37.952Z,942.7
2017-09-02T00:05:45.996Z,942.7
2017-09-02T00:06:54.041Z,942.6
2017-09-02T00:08:02.132Z,942.6
2017-09-02T00:09:10.437Z,942.6
2017-09-02T00:10:18.297Z,942.5
2017-09-02T00:11:26.384Z,942.6
2017-09-02T00:12:34.468Z,942.5
2017-09-02T00:13:42.559Z,942.5
2017-09-02T00:14:50.760Z,942.5
2017-09-02T00:15:58.726Z,942.5
2017-09-02T00:17:06.822Z,942.5
2017-09-02T00:18:15.121Z,942.5
2017-09-02T00:19:22.990Z,942.6
2017-09-02T00:20:31.135Z,942.6
2017-09-02T00:21:39.163Z,942.7
2017-09-02T00:22:47.255Z,942.8
2017-09-02T00:23:55.335Z,942.9
2017-09-02T00:25:03.543Z,942.9
2017-09-02T00:26:11.564Z,942.9
2017-09-02T00:27:19.739Z,942.9
2017-09-02T00:28:27.859Z,942.9
2017-09-02T00:29:35.764Z,942.9
2017-09-02T00:30:43.850Z,942.9
2017-09-02T00:31:51.992Z,942.9
2017-09-02T00:33:00.129Z,942.9
2017-09-02T00:34:08.156Z,942.8
2017-09-02T00:35:16.195Z,942.8
2017-09-02T00:36:24.278Z,942.8
2017-09-02T00:37:32.449Z,942.8
2017-09-02T00:38:40.448Z,942.8
2017-09-02T00:39:48.538Z,942.8
2017-09-02T00:40:56.741Z,942.8
2017-09-02T00:42:04.707Z,942.8
2017-09-02T00:43:12.849Z,942.8
2017-09-02T00:44:20.880Z,942.8
2017-09-02T00:45:28.968Z,942.8
2017-09-02T00:46:37.162Z,942.8
2017-09-02T00:47:45.154Z,942.8
2017-09-02T00:48:53.277Z,942.7
2017-09-02T00:50:01.305Z,942.7
2017-09-02T00:51:09.404Z,942.7
2017-09-02T00:52:17.486Z,942.7
2017-09-02T00:53:25.576Z,942.6
2017-09-02T00:54:33.792Z,942.6
2017-09-02T00:55:41.742Z,942.6
2017-09-02T00:56:49.885Z,942.6
2017-09-02T00:57:57.921Z,942.6
2017-09-02T00:59:06.000Z,942.6
2017-09-02T01:00:14.267Z,942.6
2017-09-02T01:01:22.174Z,942.6
2017-09-02T01:02:30.259Z,942.6
2017-09-02T01:03:38.345Z,942.5
2017-09-02T01:04:46.447Z,942.5
2017-09-02T01:05:54.657Z,942.5
2017-09-02T01:07:02.619Z,942.5
2017-09-02T01:08:10.704Z,942.5
2017-09-02T01:09:18.907Z,942.4
2017-09-02T01:10:26.877Z,942.4
2017-09-02T01:11:35.017Z,942.4
2017-09-02T01:12:43.103Z,942.4
2017-09-02T01:13:51.133Z,942.4
2017-09-02T01:14:59.221Z,942.4
2017-09-02T01:16:07.316Z,942.4
2017-09-02T01:17:15.512Z,942.4
2017-09-02T01:18:23.484Z,942.5
2017-09-02T01:19:31.731Z,942.5
2017-09-02T01:20:39.689Z,942.5
2017-09-02T01:21:47.740Z,942.6
2017-09-02T01:22:55.904Z,942.6
2017-09-02T01:24:04.082Z,942.6
2017-09-02T01:25:12.007Z,942.7
2017-09-02T01:26:20.101Z,942.6
2017-09-02T01:27:28.281Z,942.7
2017-09-02T01:28:36.426Z,942.7
2017-09-02T01:29:44.360Z,942.6
2017-09-02T01:30:52.452Z,942.6
2017-09-02T01:32:00.573Z,942.6
2017-09-02T01:33:08.646Z,942.6
2017-09-02T01:34:16.773Z,942.6
2017-09-02T01:35:24.813Z,942.6
2017-09-02T01:36:33.015Z,942.6
2017-09-02T01:37:41.100Z,942.6
2017-09-02T01:38:49.188Z,942.6
2017-09-02T01:39:57.328Z,942.6
2017-09-02T01:41:05.380Z,942.5
2017-09-02T01:42:13.459Z,942.6
2017-09-02T01:43:21.544Z,942.6
2017-09-02T01:44:29.753Z,942.6
2017-09-02T01:45:37.773Z,942.6
2017-09-02T01:46:45.801Z,942.6
2017-09-02T01:47:53.885Z,942.6
2017-09-02T01:49:01.974Z,942.6
2017-09-02T01:50:10.066Z,942.6
2017-09-02T01:51:18.253Z,942.6
2017-09-02T01:52:26.238Z,942.6
2017-09-02T01:53:34.325Z,942.7
2017-09-02T01:54:42.409Z,942.7
2017-09-02T01:55:50.526Z,942.7
2017-09-02T01:56:58.700Z,942.7
2017-09-02T01:58:06.664Z,942.7
2017-09-02T01:59:14.755Z,942.6
2017-09-02T02:00:23.017Z,942.6
2017-09-02T02:01:30.925Z,942.6
2017-09-02T02:02:39.067Z,942.6
2017-09-02T02:03:47.095Z,942.6
2017-09-02T02:04:55.180Z,942.6
2017-09-02T02:06:03.270Z,942.6
2017-09-02T02:07:11.350Z,942.6
2017-09-02T02:08:19.557Z,942.6
2017-09-02T02:09:27.521Z,942.6
2017-09-02T02:10:35.607Z,942.5
2017-09-02T02:11:43.691Z,942.6
2017-09-02T02:12:51.780Z,942.5
2017-09-02T02:13:59.921Z,942.6
2017-09-02T02:15:07.948Z,942.5
2017-09-02T02:16:16.153Z,942.5
2017-09-02T02:17:24.129Z,942.5
2017-09-02T02:18:32.264Z,942.5
2017-09-02T02:19:40.369Z,942.5
2017-09-02T02:20:48.395Z,942.5
2017-09-02T02:21:56.478Z,942.5
2017-09-02T02:23:04.566Z,942.5
2017-09-02T02:24:12.650Z,942.5
2017-09-02T02:25:20.793Z,942.5
2017-09-02T02:26:28.823Z,942.5
2017-09-02T02:27:36.909Z,942.5
2017-09-02T02:28:44.994Z,942.5
2017-09-02T02:29:53.080Z,942.5
2017-09-02T02:31:01.287Z,942.5
2017-09-02T02:32:09.306Z,942.5
2017-09-02T02:33:17.335Z,942.5
2017-09-02T02:34:25.421Z,942.5
2017-09-02T02:35:33.528Z,942.5
2017-09-02T02:36:41.649Z,942.5
2017-09-02T02:37:49.698Z,942.4
2017-09-02T02:38:57.766Z,942.4
2017-09-02T02:40:05.856Z,942.4
2017-09-02T02:41:13.939Z,942.4
2017-09-02T02:42:22.265Z,942.4
2017-09-02T02:43:30.114Z,942.4
2017-09-02T02:44:38.198Z,942.4
2017-09-02T02:45:46.285Z,942.4
2017-09-02T02:46:54.374Z,942.4
2017-09-02T02:48:02.583Z,942.4
2017-09-02T02:49:10.546Z,942.4
2017-09-02T02:50:18.631Z,942.4
2017-09-02T02:51:26.715Z,942.4
2017-09-02T02:52:34.802Z,942.4
2017-09-02T02:53:42.944Z,942.4
2017-09-02T02:54:50.976Z,942.5
2017-09-02T02:55:59.061Z,942.5
2017-09-02T02:57:07.148Z,942.5
2017-09-02T02:58:15.229Z,942.5
2017-09-02T02:59:23.445Z,942.5
2017-09-02T03:00:31.410Z,942.5
2017-09-02T03:01:39.500Z,942.5
2017-09-02T03:02:47.585Z,942.5
2017-09-02T03:03:55.791Z,942.5
2017-09-02T03:05:03.914Z,942.5
2017-09-02T03:06:11.850Z,942.5
2017-09-02T03:07:19.937Z,942.5
2017-09-02T03:08:28.023Z,942.5
2017-09-02T03:09:36.294Z,942.5
2017-09-02T03:10:44.332Z,942.5
2017-09-02T03:11:52.296Z,942.5
2017-09-02T03:13:00.385Z,942.5
2017-09-02T03:14:08.652Z,942.5
2017-09-02T03:15:16.553Z,942.5
2017-09-02T03:16:24.758Z,942.5
2017-09-02T03:17:32.725Z,942.5
2017-09-02T03:18:41.004Z,942.5
2017-09-02T03:19:48.998Z,942.4
2017-09-02T03:20:56.979Z,942.4
2017-09-02T03:22:05.187Z,942.4
2017-09-02T03:23:13.160Z,942.3
2017-09-02T03:24:21.237Z,942.3
2017-09-02T03:25:29.325Z,942.3
2017-09-02T03:26:37.421Z,942.3
2017-09-02T03:27:45.554Z,942.3
2017-09-02T03:28:53.580Z,942.2
2017-09-02T03:30:01.662Z,942.3
2017-09-02T03:31:09.749Z,942.3
2017-09-02T03:32:18.031Z,942.3
2017-09-02T03:33:25.986Z,942.3
2017-09-02T03:34:34.023Z,942.2
2017-09-02T03:35:42.246Z,942.3
2017-09-02T03:36:50.398Z,942.3
2017-09-02T03:37:58.293Z,942.3
2017-09-02T03:39:06.435Z,942.3
2017-09-02T03:40:14.464Z,942.2
2017-09-02T03:41:22.549Z,942.3
2017-09-02T03:42:30.639Z,942.2
2017-09-02T03:43:38.735Z,942.3
2017-09-02T03:44:46.926Z,942.3
2017-09-02T03:45:55.088Z,942.3
2017-09-02T03:47:03.141Z,942.3
2017-09-02T03:48:11.072Z,942.3
2017-09-02T03:49:19.159Z,942.3
2017-09-02T03:50:27.365Z,942.3
2017-09-02T03:51:35.419Z,942.3
2017-09-02T03:52:43.412Z,942.3
2017-09-02T03:53:51.501Z,942.3
2017-09-02T03:54:59.591Z,942.3
2017-09-02T03:56:07.873Z,942.3
2017-09-02T03:57:15.764Z,942.3
2017-09-02T03:58:23.845Z,942.3
2017-09-02T03:59:31.929Z,942.3
2017-09-02T04:00:40.184Z,942.3
2017-09-02T04:01:48.156Z,942.3
2017-09-02T04:02:56.183Z,942.3
2017-09-02T04:04:04.291Z,942.3
2017-09-02T04:05:12.356Z,942.3
2017-09-02T04:06:20.440Z,942.3
2017-09-02T04:07:29.433Z,942.3
2017-09-02T04:08:37.307Z,942.3
2017-09-02T04:09:44.772Z,942.3
2017-09-02T04:10:52.784Z,942.2
2017-09-02T04:12:00.869Z,942.2
2017-09-02T04:13:09.010Z,942.2
2017-09-02T04:14:17.042Z,942.2
2017-09-02T04:15:25.260Z,942.2
2017-09-02T04:16:33.213Z,942.2
2017-09-02T04:17:41.301Z,942.2
2017-09-02T04:18:49.554Z,942.2
2017-09-02T04:19:57.470Z,942.2
2017-09-02T04:21:05.564Z,942.2
2017-09-02T04:22:13.650Z,942.2
2017-09-02T04:23:22.049Z,942.2
2017-09-02T04:24:29.951Z,942.2
2017-09-02T04:25:37.921Z,942.2
2017-09-02T04:26:46.000Z,942.2
2017-09-02T04:27:54.085Z,942.2
2017-09-02T04:29:02.208Z,942.2
2017-09-02T04:30:10.314Z,942.1
2017-09-02T04:31:18.344Z,942.1
2017-09-02T04:32:26.429Z,942.2
2017-09-02T04:33:34.516Z,942.1
2017-09-02T04:34:42.600Z,942.1
2017-09-02T04:35:51.628Z,942.1
2017-09-02T04:36:58.770Z,942.1
2017-09-02T04:38:07.005Z,942.1
2017-09-02T04:39:15.070Z,942.1
2017-09-02T04:40:23.054Z,942.2
2017-09-02T04:41:31.169Z,942.2
2017-09-02T04:42:39.367Z,942.1
2017-09-02T04:43:47.311Z,942.1
2017-09-02T04:44:55.367Z,942.1
2017-09-02T04:46:03.453Z,942.1
2017-09-02T04:47:11.674Z,942.2
2017-09-02T04:48:19.715Z,942.1
2017-09-02T04:49:27.711Z,942.2
2017-09-02T04:50:35.804Z,942.1
2017-09-02T04:51:44.121Z,942.2
2017-09-02T04:52:52.218Z,942.1
2017-09-02T04:54:00.054Z,942.2
2017-09-02T04:55:08.259Z,942.2
2017-09-02T04:56:16.406Z,942.2
2017-09-02T04:57:24.308Z,942.2
2017-09-02T04:58:32.451Z,942.1
2017-09-02T04:59:40.482Z,942.1
2017-09-02T05:00:48.760Z,942.1
2017-09-02T05:01:56.654Z,942.2
2017-09-02T05:03:04.738Z,942.1
2017-09-02T05:04:12.882Z,942.1
2017-09-02T05:05:20.908Z,942.1
2017-09-02T05:06:28.995Z,942.1
2017-09-02T05:07:37.080Z,942.1
2017-09-02T05:08:45.168Z,942.1
2017-09-02T05:09:53.572Z,942.2
2017-09-02T05:11:01.399Z,942.1
2017-09-02T05:12:09.425Z,942.1
2017-09-02T05:13:17.509Z,942.1
2017-09-02T05:14:25.603Z,942.1
2017-09-02T05:15:34.164Z,942.1
2017-09-02T05:16:41.782Z,942.1
2017-09-02T05:17:49.869Z,942.1
2017-09-02T05:18:57.955Z,942.1
2017-09-02T05:20:06.067Z,942.1
2017-09-02T05:21:14.183Z,942.1
2017-09-02T05:22:22.212Z,942.1
2017-09-02T05:23:30.295Z,942.1
2017-09-02T05:24:38.417Z,942.1
2017-09-02T05:25:46.473Z,942.1
2017-09-02T05:26:54.679Z,942.1
2017-09-02T05:28:02.644Z,942.1
2017-09-02T05:29:10.731Z,942.1
2017-09-02T05:30:18.816Z,942.1
2017-09-02T05:31:26.896Z,942.1
2017-09-02T05:32:35.228Z,942.1
2017-09-02T05:33:43.189Z,942.1
2017-09-02T05:34:51.158Z,942.1
2017-09-02T05:35:59.241Z,942.1
2017-09-02T05:37:07.328Z,942.1
2017-09-02T05:38:15.562Z,942.1
2017-09-02T05:39:23.498Z,942.1
2017-09-02T05:40:31.586Z,942.1
2017-09-02T05:41:39.667Z,942.1
2017-09-02T05:42:48.631Z,942.1
2017-09-02T05:43:55.897Z,942.1
2017-09-02T05:45:03.924Z,942.1
2017-09-02T05:46:12.008Z,942.1
2017-09-02T05:47:20.261Z,942.2
2017-09-02T05:48:28.179Z,942.2
2017-09-02T05:49:36.389Z,942.1
2017-09-02T05:50:44.353Z,942.2
2017-09-02T05:51:52.436Z,942.2
2017-09-02T05:53:00.553Z,942.2
2017-09-02T05:54:08.612Z,942.2
2017-09-02T05:55:16.758Z,942.1
2017-09-02T05:56:24.940Z,942.2
2017-09-02T05:57:33.068Z,942.2
2017-09-02T05:58:41.010Z,942.2
2017-09-02T05:59:49.038Z,942.2
2017-09-02T06:00:57.247Z,942.2
2017-09-02T06:02:05.210Z,942.2
2017-09-02T06:03:13.296Z,942.2
2017-09-02T06:04:21.380Z,942.2
2017-09-02T06:05:29.468Z,942.2
2017-09-02T06:06:37.739Z,942.2
2017-09-02T06:07:45.771Z,942.2
2017-09-02T06:08:53.851Z,942.3
2017-09-02T06:10:01.940Z,942.3
2017-09-02T06:11:10.128Z,942.3
2017-09-02T06:12:18.256Z,942.3
2017-09-02T06:13:26.199Z,942.3
2017-09-02T06:14:34.464Z,942.3
2017-09-02T06:15:42.370Z,942.3
2017-09-02T06:16:50.457Z,942.3
2017-09-02T06:17:58.664Z,942.3
2017-09-02T06:19:06.658Z,942.4
2017-09-02T06:20:14.712Z,942.3
2017-09-02T06:21:22.800Z,942.3
2017-09-02T06:22:30.885Z,942.4
2017-09-02T06:23:39.188Z,942.3
2017-09-02T06:24:47.056Z,942.4
2017-09-02T06:25:55.142Z,942.4
2017-09-02T06:27:03.227Z,942.4
2017-09-02T06:28:11.312Z,942.4
2017-09-02T06:29:19.517Z,942.4
2017-09-02T06:30:27.539Z,942.4
2017-09-02T06:31:35.569Z,942.4
2017-09-02T06:32:43.695Z,942.4
2017-09-02T06:33:51.780Z,942.4
2017-09-02T06:34:59.924Z,942.4
2017-09-02T06:36:07.956Z,942.4
2017-09-02T06:37:16.040Z,942.4
2017-09-02T06:38:24.189Z,942.4
2017-09-02T06:39:32.207Z,942.4
2017-09-02T06:40:40.412Z,942.4
2017-09-02T06:41:48.379Z,942.5
2017-09-02T06:42:56.466Z,942.5
2017-09-02T06:44:04.548Z,942.5
2017-09-02T06:45:12.636Z,942.4
2017-09-02T06:46:20.776Z,942.5
2017-09-02T06:47:28.868Z,942.5
2017-09-02T06:48:36.890Z,942.5
2017-09-02T06:49:44.974Z,942.5
2017-09-02T06:50:53.063Z,942.4
2017-09-02T06:52:01.268Z,942.5
2017-09-02T06:53:09.232Z,942.4
2017-09-02T06:54:17.317Z,942.5
2017-09-02T06:55:25.403Z,942.5
2017-09-02T06:56:33.489Z,942.4
2017-09-02T06:57:41.695Z,942.5
2017-09-02T06:58:49.657Z,942.4
2017-09-02T06:59:57.741Z,942.5
2017-09-02T07:01:05.997Z,942.5
2017-09-02T07:02:13.969Z,942.5
2017-09-02T07:03:22.058Z,942.5
2017-09-02T07:04:30.088Z,942.5
2017-09-02T07:05:38.172Z,942.5
2017-09-02T07:06:46.259Z,942.5
2017-09-02T07:07:54.342Z,942.5
2017-09-02T07:09:02.478Z,942.5
2017-09-02T07:10:10.518Z,942.5
2017-09-02T07:11:18.613Z,942.5
2017-09-02T07:12:26.699Z,942.5
2017-09-02T07:13:34.784Z,942.6
2017-09-02T07:14:42.928Z,942.6
2017-09-02T07:15:50.987Z,942.6
2017-09-02T07:16:59.038Z,942.5
2017-09-02T07:18:07.268Z,942.5
2017-09-02T07:19:15.328Z,942.5
2017-09-02T07:20:23.354Z,942.6
2017-09-02T07:21:31.381Z,942.6
2017-09-02T07:22:39.469Z,942.5
2017-09-02T07:23:47.555Z,942.5
2017-09-02T07:24:55.688Z,942.6
2017-09-02T07:26:03.778Z,942.6
2017-09-02T07:27:11.808Z,942.6
2017-09-02T07:28:19.893Z,942.6
2017-09-02T07:29:28.038Z,942.6
2017-09-02T07:30:36.065Z,942.6
2017-09-02T07:31:44.268Z,942.7
2017-09-02T07:32:52.270Z,942.7
2017-09-02T07:34:00.377Z,942.7
2017-09-02T07:35:08.406Z,942.7
2017-09-02T07:36:16.491Z,942.7
2017-09-02T07:37:24.702Z,942.7
2017-09-02T07:38:32.733Z,942.7
2017-09-02T07:39:40.762Z,942.8
2017-09-02T07:40:48.848Z,942.7
2017-09-02T07:41:56.931Z,942.8
2017-09-02T07:43:05.074Z,942.8
2017-09-02T07:44:13.108Z,942.8
2017-09-02T07:45:21.190Z,942.7
2017-09-02T07:46:29.276Z,942.8
2017-09-02T07:47:37.361Z,942.8
2017-09-02T07:48:46.069Z,942.9
2017-09-02T07:49:53.651Z,942.8
2017-09-02T07:51:01.615Z,942.8
2017-09-02T07:52:09.796Z,942.8
2017-09-02T07:53:17.785Z,942.8
2017-09-02T07:54:25.993Z,942.8
2017-09-02T07:55:33.958Z,942.8
2017-09-02T07:56:42.044Z,942.8
2017-09-02T07:57:50.131Z,942.8
2017-09-02T07:58:58.217Z,942.8
2017-09-02T08:00:06.364Z,942.8
2017-09-02T08:01:14.386Z,942.8
2017-09-02T08:02:22.471Z,942.8
2017-09-02T08:03:30.557Z,942.9
2017-09-02T08:04:38.646Z,942.9
2017-09-02T08:05:46.851Z,942.8
2017-09-02T08:06:54.856Z,942.9
2017-09-02T08:08:02.906Z,942.8
2017-09-02T08:09:10.986Z,942.8
2017-09-02T08:10:19.134Z,942.8
2017-09-02T08:11:27.259Z,942.8
2017-09-02T08:12:35.250Z,942.9
2017-09-02T08:13:43.328Z,942.9
2017-09-02T08:14:51.413Z,942.9
2017-09-02T08:15:59.500Z,942.9
2017-09-02T08:17:07.642Z,942.9
2017-09-02T08:18:15.676Z,942.9
2017-09-02T08:19:23.758Z,942.9
2017-09-02T08:20:31.846Z,942.9
2017-09-02T08:21:40.047Z,942.9
2017-09-02T08:22:48.071Z,942.9
2017-09-02T08:23:56.110Z,942.9
2017-09-02T08:25:04.245Z,942.9
2017-09-02T08:26:12.281Z,942.9
2017-09-02T08:27:20.380Z,942.9
2017-09-02T08:28:28.507Z,942.9
2017-09-02T08:29:36.535Z,942.9
2017-09-02T08:30:44.781Z,942.9
2017-09-02T08:31:52.709Z,942.9
2017-09-02T08:33:00.794Z,942.9
2017-09-02T08:34:08.940Z,942.9
2017-09-02T08:35:16.965Z,942.8
2017-09-02T08:36:25.053Z,942.8
2017-09-02T08:37:33.260Z,942.8
2017-09-02T08:38:41.271Z,942.8
2017-09-02T08:39:49.431Z,942.8
2017-09-02T08:40:57.395Z,942.8
2017-09-02T08:42:05.485Z,942.8
2017-09-02T08:43:13.569Z,942.8
2017-09-02T08:44:21.651Z,942.8
2017-09-02T08:45:29.793Z,942.7
2017-09-02T08:46:37.820Z,942.7
2017-09-02T08:47:45.907Z,942.7
2017-09-02T08:48:54.015Z,942.7
2017-09-02T08:50:02.085Z,942.7
2017-09-02T08:51:10.279Z,942.8
2017-09-02T08:52:18.247Z,942.7
2017-09-02T08:53:26.411Z,942.7
2017-09-02T08:54:34.417Z,942.7
2017-09-02T08:55:42.522Z,942.8
2017-09-02T08:56:50.707Z,942.7
2017-09-02T08:57:58.670Z,942.7
2017-09-02T08:59:06.756Z,942.7
2017-09-02T09:00:14.843Z,942.7
2017-09-02T09:01:22.926Z,942.7
2017-09-02T09:02:31.153Z,942.7
2017-09-02T09:03:39.099Z,942.7
2017-09-02T09:04:47.183Z,942.7
2017-09-02T09:05:55.271Z,942.7
2017-09-02T09:07:03.355Z,942.7
2017-09-02T09:08:11.558Z,942.7
2017-09-02T09:09:19.581Z,942.7
2017-09-02T09:10:27.613Z,942.6
2017-09-02T09:11:35.714Z,942.6
2017-09-02T09:12:43.815Z,942.6
2017-09-02T09:13:51.945Z,942.6
2017-09-02T09:14:59.969Z,942.6
2017-09-02T09:16:08.097Z,942.6
2017-09-02T09:17:16.140Z,942.6
2017-09-02T09:18:24.225Z,942.6
2017-09-02T09:19:32.431Z,942.6
2017-09-02T09:20:40.396Z,942.6
2017-09-02T09:21:48.483Z,942.6
2017-09-02T09:22:56.565Z,942.6
2017-09-02T09:24:04.666Z,942.6
2017-09-02T09:25:13.010Z,942.7
2017-09-02T09:26:20.831Z,942.7
2017-09-02T09:27:28.916Z,942.7
2017-09-02T09:28:37.003Z,942.7
2017-09-02T09:29:45.220Z,942.7
2017-09-02T09:30:53.292Z,942.7
2017-09-02T09:32:01.264Z,942.7
2017-09-02T09:33:09.343Z,942.8
2017-09-02T09:34:17.431Z,942.8
2017-09-02T09:35:25.529Z,942.8
2017-09-02T09:36:33.728Z,942.8
2017-09-02T09:37:41.684Z,942.9
2017-09-02T09:38:49.770Z,942.8
2017-09-02T09:39:57.866Z,942.9
2017-09-02T09:41:05.993Z,942.9
2017-09-02T09:42:14.844Z,942.9
2017-09-02T09:43:22.810Z,942.9
2017-09-02T09:44:30.873Z,942.9
2017-09-02T09:45:38.962Z,942.9
2017-09-02T09:46:47.071Z,942.9
2017-09-02T09:47:55.183Z,943.0
2017-09-02T09:49:03.216Z,943.0
2017-09-02T09:50:11.299Z,943.0
2017-09-02T09:51:19.384Z,943.0
2017-09-02T09:52:27.466Z,943.0
2017-09-02T09:53:35.611Z,943.0
2017-09-02T09:54:43.744Z,943.0
2017-09-02T09:55:51.759Z,943.1
2017-09-02T09:56:59.927Z,943.0
2017-09-02T09:58:07.891Z,943.0
2017-09-02T09:59:16.145Z,943.0
2017-09-02T10:00:24.062Z,943.0
2017-09-02T10:01:32.145Z,942.9
2017-09-02T10:02:40.229Z,942.9
2017-09-02T10:03:48.313Z,942.9
2017-09-02T10:04:56.460Z,942.9
2017-09-02T10:06:04.485Z,943.0
2017-09-02T10:07:12.567Z,942.9
2017-09-02T10:08:20.653Z,942.9
2017-09-02T10:09:28.760Z,943.0
2017-09-02T10:10:36.964Z,943.0
2017-09-02T10:11:44.930Z,943.0
2017-09-02T10:12:53.069Z,943.0
2017-09-02T10:14:01.157Z,943.0
2017-09-02T10:15:09.296Z,943.0
2017-09-02T10:16:17.324Z,942.9
2017-09-02T10:17:25.351Z,942.9
2017-09-02T10:18:33.441Z,943.0
2017-09-02T10:19:41.799Z,942.9
2017-09-02T10:20:49.608Z,942.9
2017-09-02T10:21:57.813Z,942.9
2017-09-02T10:23:05.783Z,942.9
2017-09-02T10:24:13.862Z,942.9
2017-09-02T10:25:21.948Z,942.9
2017-09-02T10:26:30.041Z,943.0
2017-09-02T10:27:38.184Z,943.0
2017-09-02T10:28:46.329Z,942.9
2017-09-02T10:29:54.301Z,942.9
2017-09-02T10:31:02.387Z,942.9
2017-09-02T10:32:10.472Z,943.0
2017-09-02T10:33:18.612Z,943.0
2017-09-02T10:34:26.659Z,943.0
2017-09-02T10:35:34.724Z,943.0
2017-09-02T10:36:42.865Z,943.0
2017-09-02T10:37:50.914Z,942.9
2017-09-02T10:38:59.117Z,942.9
2017-09-02T10:40:07.080Z,942.9
2017-09-02T10:41:15.166Z,942.9
2017-09-02T10:42:23.249Z,942.9
2017-09-02T10:43:31.336Z,942.9
2017-09-02T10:44:39.642Z,942.9
2017-09-02T10:45:47.676Z,942.9
2017-09-02T10:46:55.689Z,942.9
2017-09-02T10:48:03.775Z,943.0
2017-09-02T10:49:11.860Z,943.0
2017-09-02T10:50:20.000Z,943.0
2017-09-02T10:51:28.058Z,943.0
2017-09-02T10:52:36.111Z,943.0
2017-09-02T10:53:44.197Z,943.0
2017-09-02T10:54:52.295Z,943.0
2017-09-02T10:56:00.509Z,943.0
2017-09-02T10:57:08.844Z,943.0
2017-09-02T10:58:17.342Z,943.0
2017-09-02T10:59:25.427Z,942.9
2017-09-02T11:00:33.572Z,943.0
2017-09-02T11:01:41.664Z,943.0
2017-09-02T11:02:49.689Z,943.0
2017-09-02T11:03:57.774Z,943.0
2017-09-02T11:05:05.857Z,942.9
2017-09-02T11:06:13.946Z,942.9
2017-09-02T11:07:22.203Z,942.9
2017-09-02T11:08:30.170Z,943.0
2017-09-02T11:09:38.250Z,943.0
2017-09-02T11:10:46.338Z,943.0
2017-09-02T11:11:54.502Z,942.9
2017-09-02T11:13:02.560Z,942.9
2017-09-02T11:14:10.788Z,942.9
2017-09-02T11:15:18.673Z,942.9
2017-09-02T11:16:26.878Z,942.9
2017-09-02T11:17:34.849Z,942.9
2017-09-02T11:18:42.984Z,942.9
2017-09-02T11:19:51.017Z,942.9
2017-09-02T11:20:59.094Z,942.9
2017-09-02T11:22:07.180Z,942.9
2017-09-02T11:23:15.278Z,942.9
2017-09-02T11:24:23.538Z,943.0
2017-09-02T11:25:31.434Z,943.0
2017-09-02T11:26:39.519Z,942.9
2017-09-02T11:27:47.605Z,943.0
2017-09-02T11:28:55.685Z,943.0
2017-09-02T11:30:03.827Z,943.0
2017-09-02T11:31:11.874Z,943.0
2017-09-02T11:32:20.060Z,943.0
2017-09-02T11:33:28.023Z,943.0
2017-09-02T11:34:36.137Z,943.0
2017-09-02T11:35:44.285Z,942.9
2017-09-02T11:36:52.306Z,943.0
2017-09-02T11:39:08.477Z,943.0
2017-09-02T11:40:16.576Z,942.9
2017-09-02T11:41:24.702Z,942.9
2017-09-02T11:42:32.730Z,942.9
2017-09-02T11:43:40.833Z,942.9
2017-09-02T11:44:48.920Z,943.0
2017-09-02T11:45:57.003Z,942.9
2017-09-02T11:47:05.363Z,942.9
2017-09-02T11:48:13.291Z,942.9
2017-09-02T11:49:21.254Z,943.0
2017-09-02T11:50:29.370Z,942.9
2017-09-02T11:51:37.423Z,942.9
2017-09-02T11:52:45.563Z,942.9
2017-09-02T11:53:53.592Z,942.9
2017-09-02T11:55:01.670Z,942.9
2017-09-02T11:56:09.768Z,942.9
2017-09-02T11:57:17.849Z,942.9
2017-09-02T11:58:26.055Z,942.9
2017-09-02T11:59:34.018Z,942.9
2017-09-02T12:00:42.288Z,942.9
2017-09-02T12:01:50.193Z,942.9
2017-09-02T12:02:58.347Z,942.9
2017-09-02T12:04:06.415Z,942.9
2017-09-02T12:05:14.442Z,942.9
2017-09-02T12:06:22.646Z,942.9
2017-09-02T12:07:30.608Z,942.9
2017-09-02T12:08:38.693Z,942.9
2017-09-02T12:09:46.833Z,942.9
2017-09-02T12:10:55.007Z,942.8
2017-09-02T12:12:03.043Z,942.9
2017-09-02T12:13:11.031Z,942.9
2017-09-02T12:14:19.115Z,942.8
2017-09-02T12:15:27.326Z,942.8
2017-09-02T12:16:35.283Z,942.8
2017-09-02T12:17:43.375Z,942.8
2017-09-02T12:18:51.451Z,942.8
2017-09-02T12:19:59.594Z,942.8
2017-09-02T12:21:07.745Z,942.8
2017-09-02T12:22:15.709Z,942.8
2017-09-02T12:23:23.792Z,942.8
2017-09-02T12:24:32.027Z,942.8
2017-09-02T12:25:40.069Z,942.7
2017-09-02T12:26:48.101Z,942.7
2017-09-02T12:27:56.140Z,942.8
2017-09-02T12:29:04.376Z,942.8
2017-09-02T12:30:12.318Z,942.7
2017-09-02T12:31:20.397Z,942.8
2017-09-02T12:32:28.535Z,942.8
2017-09-02T12:33:36.722Z,942.7
2017-09-02T12:34:44.647Z,942.7
2017-09-02T12:35:52.855Z,942.8
2017-09-02T12:37:00.829Z,942.7
2017-09-02T12:38:09.122Z,942.7
2017-09-02T12:39:17.002Z,942.7
2017-09-02T12:40:25.083Z,942.7
2017-09-02T12:41:33.173Z,942.7
2017-09-02T12:42:41.256Z,942.7
2017-09-02T12:43:49.398Z,942.7
2017-09-02T12:44:57.425Z,942.7
2017-09-02T12:46:05.515Z,942.7
2017-09-02T12:47:13.600Z,942.7
2017-09-02T12:48:21.693Z,942.7
2017-09-02T12:49:29.900Z,942.7
2017-09-02T12:50:37.865Z,942.7
2017-09-02T12:51:46.008Z,942.7
2017-09-02T12:52:54.134Z,942.7
2017-09-02T12:54:02.269Z,942.7
2017-09-02T12:55:10.256Z,942.6
2017-09-02T12:56:18.284Z,942.6
2017-09-02T12:57:26.369Z,942.6
2017-09-02T12:58:34.453Z,942.6
2017-09-02T12:59:42.541Z,942.6
2017-09-02T13:00:50.913Z,942.6
2017-09-02T13:01:58.790Z,942.6
2017-09-02T13:03:06.795Z,942.6
2017-09-02T13:04:14.879Z,942.6
2017-09-02T13:05:22.964Z,942.6
2017-09-02T13:06:31.201Z,942.6
2017-09-02T13:07:39.189Z,942.6
2017-09-02T13:08:47.217Z,942.6
2017-09-02T13:09:55.301Z,942.6
2017-09-02T13:11:03.385Z,942.6
2017-09-02T13:12:11.595Z,942.5
2017-09-02T13:13:19.566Z,942.5
2017-09-02T13:14:27.635Z,942.5
2017-09-02T13:15:35.821Z,942.5
2017-09-02T13:16:43.866Z,942.5
2017-09-02T13:17:52.001Z,942.5
2017-09-02T13:19:00.029Z,942.5
2017-09-02T13:20:08.276Z,942.5
2017-09-02T13:21:16.198Z,942.4
2017-09-02T13:22:24.283Z,942.4
2017-09-02T13:23:32.421Z,942.5
2017-09-02T13:24:40.449Z,942.5
2017-09-02T13:25:48.533Z,942.5
2017-09-02T13:26:56.620Z,942.5
2017-09-02T13:28:04.706Z,942.5
2017-09-02T13:29:13.088Z,942.4
2017-09-02T13:30:20.873Z,942.5
2017-09-02T13:31:28.958Z,942.5
2017-09-02T13:32:37.042Z,942.5
2017-09-02T13:33:45.122Z,942.5
2017-09-02T13:34:53.265Z,942.5
2017-09-02T13:36:01.294Z,942.5
2017-09-02T13:37:09.379Z,942.5
2017-09-02T13:38:17.468Z,942.5
2017-09-02T13:39:25.810Z,942.5
2017-09-02T13:40:33.750Z,942.4
2017-09-02T13:41:41.715Z,942.4
2017-09-02T13:42:49.996Z,942.4
2017-09-02T13:43:58.005Z,942.5
2017-09-02T13:45:05.974Z,942.4
2017-09-02T13:46:14.112Z,942.4
2017-09-02T13:47:22.240Z,942.4
2017-09-02T13:48:30.262Z,942.4
2017-09-02T13:49:38.336Z,942.4
2017-09-02T13:50:46.419Z,942.3
2017-09-02T13:51:54.629Z,942.3
2017-09-02T13:53:02.591Z,942.3
2017-09-02T13:54:10.675Z,942.3
2017-09-02T13:55:18.878Z,942.3
2017-09-02T13:56:26.841Z,942.3
2017-09-02T13:57:35.108Z,942.2
2017-09-02T13:58:43.014Z,942.2
2017-09-02T13:59:51.106Z,942.2
2017-09-02T14:00:59.189Z,942.2
2017-09-02T14:02:07.267Z,942.2
2017-09-02T14:03:15.470Z,942.2
2017-09-02T14:04:23.433Z,942.2
2017-09-02T14:05:31.519Z,942.2
2017-09-02T14:06:39.772Z,942.2
2017-09-02T14:07:47.801Z,942.2
2017-09-02T14:08:55.901Z,942.2
2017-09-02T14:10:03.872Z,942.1
2017-09-02T14:11:12.173Z,942.1
2017-09-02T14:12:20.040Z,942.1
2017-09-02T14:13:28.130Z,942.1
2017-09-02T14:14:36.263Z,942.1
2017-09-02T14:15:44.444Z,942.1
2017-09-02T14:16:52.385Z,942.1
2017-09-02T14:18:00.462Z,942.1
2017-09-02T14:19:08.548Z,942.1
2017-09-02T14:20:16.691Z,942.1
2017-09-02T14:21:24.717Z,942.1
2017-09-02T14:22:32.807Z,942.1
2017-09-02T14:23:40.896Z,942.1
2017-09-02T14:24:48.988Z,942.2
2017-09-02T14:25:57.123Z,942.1
2017-09-02T14:27:05.204Z,942.1
2017-09-02T14:28:13.232Z,942.2
2017-09-02T14:29:21.321Z,942.1
2017-09-02T14:30:29.402Z,942.2
2017-09-02T14:31:37.608Z,942.2
2017-09-02T14:32:45.580Z,942.2
2017-09-02T14:33:53.750Z,942.2
2017-09-02T14:35:01.762Z,942.2
2017-09-02T14:36:09.893Z,942.2
2017-09-02T14:37:17.968Z,942.1